Svitzer Lisboa — CSXW7 — position and weather

sailwx.info

Track history (hours):
 
Tides and Currents Weather Stations Pressure Air Temp Water Temp Dewpoint Dewpoint Depression Visibility Wind Speed Wind Dir Waves Ship Positions

Svitzer Lisboa

Last reported at 2017-Nov-18 04:30 UTC. Time now 2017-Nov-18 04:49 UTC.
Position N 38°30' W 008°50'.

Length 28 m; draft 4 m.

Type: Towing. MMSI: 263623000.

Date/timePositionNaut miles runAvg speedWind from/ knotsBaromVisibWave heightAir tempDewpointWater temp
2017-Nov-18 04:30N 38°30' W 008°50'0 0.0
2017-Nov-18 04:01N 38°30' W 008°50'0 0.0
2017-Nov-18 03:30N 38°30' W 008°50'0 0.0
2017-Nov-18 02:56N 38°30' W 008°50'0 0.0
2017-Nov-18 02:29N 38°30' W 008°50'0 0.0
2017-Nov-18 01:54N 38°30' W 008°50'0 0.0
2017-Nov-18 01:26N 38°30' W 008°50'0 0.0
2017-Nov-18 00:59N 38°30' W 008°50'0 0.0
2017-Nov-18 00:25N 38°30' W 008°50'0 0.0
2017-Nov-17 23:57N 38°30' W 008°50'0 0.0
2017-Nov-17 23:18N 38°30' W 008°50'0 0.0
2017-Nov-17 22:57N 38°30' W 008°50'0 0.0
2017-Nov-17 22:30N 38°30' W 008°50'0 0.0
2017-Nov-17 22:00N 38°30' W 008°50'0 0.0
2017-Nov-17 21:30N 38°30' W 008°50'0 0.0
2017-Nov-17 21:00N 38°30' W 008°50'0 0.0
2017-Nov-17 20:30N 38°30' W 008°50'0 0.0
2017-Nov-17 20:00N 38°30' W 008°50'0 0.0
2017-Nov-17 19:28N 38°30' W 008°50'0 0.0
2017-Nov-17 18:55N 38°30' W 008°50'0 0.0
2017-Nov-17 18:25N 38°30' W 008°50'0 1.1
2017-Nov-17 18:00N 38°30' W 008°51'1 2.0
2017-Nov-17 17:30N 38°31' W 008°52'1 2.3
2017-Nov-17 16:58N 38°30' W 008°50'0 0.5
2017-Nov-17 16:30N 38°30' W 008°50'0 0.0
2017-Nov-17 15:59N 38°30' W 008°50'0 0.0
2017-Nov-17 15:30N 38°30' W 008°50'0 0.0
2017-Nov-17 14:56N 38°30' W 008°50'0 0.0
2017-Nov-17 14:30N 38°30' W 008°50'0 0.0
2017-Nov-17 13:48N 38°30' W 008°50'0 0.0
2017-Nov-17 13:30N 38°30' W 008°50'0 0.0
2017-Nov-17 13:00N 38°30' W 008°50'0 0.0
2017-Nov-17 12:25N 38°30' W 008°50'0 0.0
2017-Nov-17 11:59N 38°30' W 008°50'0 0.0
2017-Nov-17 11:30N 38°30' W 008°50'0 0.0
2017-Nov-17 11:00N 38°30' W 008°50'0 0.0
2017-Nov-17 10:26N 38°30' W 008°50'0 0.0
2017-Nov-17 09:58N 38°30' W 008°50'0 0.0
2017-Nov-17 09:29N 38°30' W 008°50'0 0.0
2017-Nov-17 08:59N 38°30' W 008°50'0 0.0
2017-Nov-17 08:22N 38°30' W 008°50'0 0.0
2017-Nov-17 07:58N 38°30' W 008°50'0 0.0
2017-Nov-17 07:27N 38°30' W 008°50'0 0.0
2017-Nov-17 07:00N 38°30' W 008°50'0 0.0
2017-Nov-17 06:30N 38°30' W 008°50'0 0.0
2017-Nov-17 05:53N 38°30' W 008°50'0 0.0
2017-Nov-17 05:24N 38°30' W 008°50'0 0.0
2017-Nov-17 05:00N 38°30' W 008°50'0 0.0
2017-Nov-17 04:25N 38°30' W 008°50'0 0.0
2017-Nov-17 03:40N 38°30' W 008°50'0 0.0
2017-Nov-17 03:26N 38°30' W 008°50'0 0.0
2017-Nov-17 03:00N 38°30' W 008°50'0 0.0
2017-Nov-17 02:22N 38°30' W 008°50'0 0.0
2017-Nov-17 01:56N 38°30' W 008°50'0 0.0
2017-Nov-17 01:29N 38°30' W 008°50'0 0.0
2017-Nov-17 00:53N 38°30' W 008°50'0 0.0
2017-Nov-17 00:23N 38°30' W 008°50'0 0.0
2017-Nov-16 23:58N 38°30' W 008°50'0 0.0
2017-Nov-16 23:23N 38°30' W 008°50'0 0.0
2017-Nov-16 22:58N 38°30' W 008°50'0 0.0
2017-Nov-16 22:30N 38°30' W 008°50'0 0.0
2017-Nov-16 21:59N 38°30' W 008°50'0 0.0
2017-Nov-16 21:29N 38°30' W 008°50'0 0.0
2017-Nov-16 20:58N 38°30' W 008°50'0 0.0
2017-Nov-16 20:27N 38°30' W 008°50'0 0.0
2017-Nov-16 19:53N 38°30' W 008°50'0 0.0
2017-Nov-16 19:26N 38°30' W 008°50'0 0.0
2017-Nov-16 19:00N 38°30' W 008°50'0 0.0
2017-Nov-16 18:30N 38°30' W 008°50'0 0.0
2017-Nov-16 18:00N 38°30' W 008°50'0 0.0
2017-Nov-16 17:19N 38°30' W 008°50'0 0.0
2017-Nov-16 16:53N 38°30' W 008°50'0 0.0
2017-Nov-16 16:28N 38°30' W 008°50'1 2.8
2017-Nov-16 15:59N 38°30' W 008°52'0 0.5
2017-Nov-16 15:30N 38°31' W 008°52'2 4.0
2017-Nov-16 15:01N 38°31' W 008°54'3 5.4
2017-Nov-16 14:27N 38°30' W 008°51'1 1.1
2017-Nov-16 14:00N 38°30' W 008°50'0 0.0
2017-Nov-16 13:26N 38°30' W 008°50'0 0.0
2017-Nov-16 13:00N 38°30' W 008°50'0 0.0
2017-Nov-16 12:30N 38°30' W 008°50'0 0.0
2017-Nov-16 11:59N 38°30' W 008°50'0 0.0
2017-Nov-16 11:28N 38°30' W 008°50'0 0.0
2017-Nov-16 10:57N 38°30' W 008°50'0 0.0
2017-Nov-16 10:28N 38°30' W 008°50'0 0.0
2017-Nov-16 09:58N 38°30' W 008°50'0 0.0
2017-Nov-16 09:30N 38°30' W 008°50'0 0.0
2017-Nov-16 09:00N 38°30' W 008°50'0 0.0
2017-Nov-16 08:28N 38°30' W 008°50'0 0.0
2017-Nov-16 08:00N 38°30' W 008°50'0 0.0
2017-Nov-16 07:30N 38°30' W 008°50'0 0.0
2017-Nov-16 07:00N 38°30' W 008°50'0 0.0
2017-Nov-16 06:28N 38°30' W 008°50'0 0.0
2017-Nov-16 05:35N 38°30' W 008°50'0 0.0
2017-Nov-16 05:30N 38°30' W 008°50'0 0.0
2017-Nov-16 05:00N 38°30' W 008°50'0 0.0
2017-Nov-16 04:29N 38°30' W 008°50'0 0.0
2017-Nov-16 03:59N 38°30' W 008°50'0 0.0
2017-Nov-16 03:28N 38°30' W 008°50'0 0.0
2017-Nov-16 03:00N 38°30' W 008°50'0 0.0
2017-Nov-16 02:28N 38°30' W 008°50'0 0.0
2017-Nov-16 02:00N 38°30' W 008°50'0 0.0
2017-Nov-16 01:26N 38°30' W 008°50'0 0.0
2017-Nov-16 00:59N 38°30' W 008°50'0 0.0
2017-Nov-16 00:30N 38°30' W 008°50'0 0.0
2017-Nov-16 00:00N 38°30' W 008°50'0 0.0
2017-Nov-15 23:22N 38°30' W 008°50'0 0.0
2017-Nov-15 22:58N 38°30' W 008°50'0 0.0
2017-Nov-15 22:29N 38°30' W 008°50'0 0.0
2017-Nov-15 21:59N 38°30' W 008°50'0 0.0
2017-Nov-15 21:13N 38°30' W 008°50'0 0.0
2017-Nov-15 21:00N 38°30' W 008°50'0 0.0
2017-Nov-15 20:27N 38°30' W 008°50'0 0.0
2017-Nov-15 20:00N 38°30' W 008°50'0 0.0
2017-Nov-15 19:21N 38°30' W 008°50'0 0.0
2017-Nov-15 19:00N 38°30' W 008°50'0 0.0
2017-Nov-15 18:23N 38°30' W 008°50'0 0.0
2017-Nov-15 18:00N 38°30' W 008°50'0 0.0
2017-Nov-15 17:30N 38°30' W 008°50'0 0.0
2017-Nov-15 16:57N 38°30' W 008°50'0 0.0
2017-Nov-15 16:29N 38°30' W 008°50'0 0.0
2017-Nov-15 15:54N 38°30' W 008°50'0 0.0
2017-Nov-15 15:22N 38°30' W 008°50'0 0.0
2017-Nov-15 15:00N 38°30' W 008°50'0 0.0
2017-Nov-15 14:10N 38°30' W 008°50'0 0.0
2017-Nov-15 13:49N 38°30' W 008°50'0 0.0
2017-Nov-15 13:19N 38°30' W 008°50'0 0.0
2017-Nov-15 12:56N 38°30' W 008°50'0 0.0
2017-Nov-15 12:28N 38°30' W 008°50'0 0.0
2017-Nov-15 12:00N 38°30' W 008°50'0 0.0
2017-Nov-15 11:16N 38°30' W 008°50'0 0.0
2017-Nov-15 11:00N 38°30' W 008°50'0 0.0
2017-Nov-15 10:17N 38°30' W 008°50'0 0.0
2017-Nov-15 09:55N 38°30' W 008°50'0 0.0
2017-Nov-15 09:30N 38°30' W 008°50'0 0.0
2017-Nov-15 08:46N 38°30' W 008°50'0 0.0
2017-Nov-15 08:29N 38°30' W 008°50'0 0.0
2017-Nov-15 07:59N 38°30' W 008°50'0 0.0
2017-Nov-15 07:28N 38°30' W 008°50'0 0.0
2017-Nov-15 06:58N 38°30' W 008°50'0 0.0
2017-Nov-15 06:30N 38°30' W 008°50'0 0.0
2017-Nov-15 05:57N 38°30' W 008°50'0 0.0
2017-Nov-15 05:30N 38°30' W 008°50'0 0.0
2017-Nov-15 05:00N 38°30' W 008°50'0 0.0
2017-Nov-15 04:29N 38°30' W 008°50'0 0.0
2017-Nov-15 04:00N 38°30' W 008°50'0 0.0
2017-Nov-15 03:29N 38°30' W 008°50'0 0.0
2017-Nov-15 02:58N 38°30' W 008°50'0 0.0
2017-Nov-15 02:29N 38°30' W 008°50'0 0.0
2017-Nov-15 02:00N 38°30' W 008°50'0 0.0
2017-Nov-15 01:28N 38°30' W 008°50'0 0.0
2017-Nov-15 00:58N 38°30' W 008°50'0 0.0
2017-Nov-15 00:24N 38°30' W 008°50'0 0.0
2017-Nov-14 23:59N 38°30' W 008°50'0 0.0
2017-Nov-14 23:31N 38°30' W 008°50'0 0.0
2017-Nov-14 22:50N 38°30' W 008°50'0 0.0
2017-Nov-14 22:30N 38°30' W 008°50'0 0.0
2017-Nov-14 21:51N 38°30' W 008°50'0 0.0
2017-Nov-14 21:27N 38°30' W 008°50'0 0.0
2017-Nov-14 20:55N 38°30' W 008°50'0 0.0
2017-Nov-14 20:28N 38°30' W 008°50'0 0.0
2017-Nov-14 19:59N 38°30' W 008°50'0 0.0
2017-Nov-14 19:28N 38°30' W 008°50'2 3.9
2017-Nov-14 18:55N 38°31' W 008°53'1 2.1
2017-Nov-14 18:30N 38°31' W 008°54'0 0.8
2017-Nov-14 18:01N 38°31' W 008°53'2 4.3
2017-Nov-14 17:28N 38°30' W 008°51'0 0.2
2017-Nov-14 16:47N 38°30' W 008°50'0 0.3
2017-Nov-14 16:12N 38°30' W 008°50'0 0.0
2017-Nov-14 16:00N 38°30' W 008°50'0 0.0
2017-Nov-14 14:50N 38°30' W 008°50'0 0.0
2017-Nov-14 14:24N 38°30' W 008°50'0 0.0
2017-Nov-14 13:58N 38°30' W 008°50'0 0.0
2017-Nov-14 13:30N 38°30' W 008°50'0 0.0
2017-Nov-14 12:47N 38°30' W 008°50'0 0.0
2017-Nov-14 12:16N 38°30' W 008°50'0 0.0
2017-Nov-14 11:44N 38°30' W 008°50'0 0.0
2017-Nov-14 11:30N 38°30' W 008°50'0 0.0
2017-Nov-14 10:58N 38°30' W 008°50'0 0.0
2017-Nov-14 10:26N 38°30' W 008°50'0 0.0
2017-Nov-14 09:56N 38°30' W 008°50'0 0.0
2017-Nov-14 09:28N 38°30' W 008°50'0 0.0
2017-Nov-14 09:00N 38°30' W 008°50'0 0.0
2017-Nov-14 08:28N 38°30' W 008°50'0 0.0
2017-Nov-14 08:00N 38°30' W 008°50'0 0.0
2017-Nov-14 07:28N 38°30' W 008°50'2 3.2
2017-Nov-14 06:59N 38°31' W 008°52'0 0.8
2017-Nov-14 06:26N 38°31' W 008°52'2 3.5
2017-Nov-14 06:00N 38°30' W 008°54'1 1.6
2017-Nov-14 05:30N 38°31' W 008°54'3 5.1
2017-Nov-14 05:00N 38°30' W 008°51'0 0.4
2017-Nov-14 04:21N 38°30' W 008°50'0 0.0
2017-Nov-14 03:56N 38°30' W 008°50'0 0.0
2017-Nov-14 03:30N 38°30' W 008°50'0 0.0
2017-Nov-14 02:58N 38°30' W 008°50'0 0.0
2017-Nov-14 02:27N 38°30' W 008°50'0 0.0
2017-Nov-14 01:56N 38°30' W 008°50'0 0.0
2017-Nov-14 01:28N 38°30' W 008°50'0 0.0
2017-Nov-14 01:00N 38°30' W 008°50'0 0.0
2017-Nov-14 00:30N 38°30' W 008°50'0 0.0
2017-Nov-14 00:00N 38°30' W 008°50'0 0.0
2017-Nov-13 23:30N 38°30' W 008°50'0 0.0
2017-Nov-13 23:00N 38°30' W 008°50'0 0.0
2017-Nov-13 22:27N 38°30' W 008°50'0 0.0
2017-Nov-13 21:58N 38°30' W 008°50'0 0.0
2017-Nov-13 01:58N 38°30' W 008°50'0 0.0
2017-Nov-13 01:26N 38°30' W 008°50'0 0.0
2017-Nov-13 00:58N 38°30' W 008°50'0 0.0
2017-Nov-13 00:25N 38°30' W 008°50'0 0.0
2017-Nov-12 23:51N 38°30' W 008°50'0 0.0
2017-Nov-12 23:29N 38°30' W 008°50'0 0.0
2017-Nov-12 22:58N 38°30' W 008°50'0 0.0
2017-Nov-12 22:30N 38°30' W 008°50'0 0.0
2017-Nov-12 22:00N 38°30' W 008°50'0 0.0
2017-Nov-12 21:30N 38°30' W 008°50'0 0.0
2017-Nov-12 20:57N 38°30' W 008°50'0 0.0
2017-Nov-12 20:21N 38°30' W 008°50'0 0.0
2017-Nov-12 19:59N 38°30' W 008°50'0 0.0
2017-Nov-12 19:30N 38°30' W 008°50'0 0.0
2017-Nov-12 18:56N 38°30' W 008°50'0 0.0
2017-Nov-12 18:13N 38°30' W 008°50'0 0.0
2017-Nov-12 17:52N 38°30' W 008°50'0 0.0
2017-Nov-12 17:25N 38°30' W 008°50'0 0.0
2017-Nov-12 16:55N 38°30' W 008°50'0 0.0
2017-Nov-12 16:30N 38°30' W 008°50'0 0.0
2017-Nov-12 15:59N 38°30' W 008°50'0 0.0
2017-Nov-12 15:28N 38°30' W 008°50'0 0.0
2017-Nov-12 14:53N 38°30' W 008°50'0 0.0
2017-Nov-12 14:26N 38°30' W 008°50'0 0.0
2017-Nov-12 13:58N 38°30' W 008°50'0 0.0
2017-Nov-12 13:27N 38°30' W 008°50'2 3.7
2017-Nov-12 12:56N 38°31' W 008°52'0 0.8
2017-Nov-12 12:30N 38°31' W 008°52'2 2.8
2017-Nov-12 11:57N 38°30' W 008°50'0 0.0
2017-Nov-12 11:28N 38°30' W 008°50'0 0.0
2017-Nov-12 11:00N 38°30' W 008°50'0 0.0
2017-Nov-12 10:28N 38°30' W 008°50'0 0.0
2017-Nov-12 09:58N 38°30' W 008°50'0 0.0
2017-Nov-12 09:29N 38°30' W 008°50'0 0.0
2017-Nov-12 08:58N 38°30' W 008°50'0 0.0
2017-Nov-12 08:30N 38°30' W 008°50'0 0.0
2017-Nov-12 08:00N 38°30' W 008°50'0 0.0
2017-Nov-12 07:30N 38°30' W 008°50'0 0.0
2017-Nov-12 06:58N 38°30' W 008°50'0 0.0
2017-Nov-12 06:20N 38°30' W 008°50'0 0.0
2017-Nov-12 05:57N 38°30' W 008°50'0 0.0
2017-Nov-12 05:30N 38°30' W 008°50'0 0.0
2017-Nov-12 04:58N 38°30' W 008°50'0 0.0
2017-Nov-12 04:30N 38°30' W 008°50'0 0.0
2017-Nov-12 03:58N 38°30' W 008°50'0 0.0
2017-Nov-12 03:29N 38°30' W 008°50'0 0.0
2017-Nov-12 02:57N 38°30' W 008°50'0 0.0
2017-Nov-12 02:26N 38°30' W 008°50'0 0.0
2017-Nov-12 01:57N 38°30' W 008°50'0 0.0
2017-Nov-12 01:28N 38°30' W 008°50'0 0.0
2017-Nov-12 00:55N 38°30' W 008°50'0 0.0
2017-Nov-12 00:30N 38°30' W 008°50'0 0.0
2017-Nov-11 23:58N 38°30' W 008°50'0 0.0
2017-Nov-11 23:28N 38°30' W 008°50'0 0.0
2017-Nov-11 22:58N 38°30' W 008°50'0 0.0
2017-Nov-11 22:29N 38°30' W 008°50'0 0.0
2017-Nov-11 21:59N 38°30' W 008°50'0 0.0
2017-Nov-11 21:27N 38°30' W 008°50'0 0.0
2017-Nov-11 20:57N 38°30' W 008°50'0 0.0
2017-Nov-11 20:26N 38°30' W 008°50'0 0.0
2017-Nov-11 20:00N 38°30' W 008°50'0 0.0
2017-Nov-11 19:30N 38°30' W 008°50'0 0.0
2017-Nov-11 18:59N 38°30' W 008°50'0 0.0
2017-Nov-11 18:29N 38°30' W 008°50'0 0.0
2017-Nov-11 18:00N 38°30' W 008°50'0 0.0
2017-Nov-11 17:29N 38°30' W 008°50'0 0.0
2017-Nov-11 16:56N 38°30' W 008°50'0 0.0
2017-Nov-11 16:25N 38°30' W 008°50'0 0.0
2017-Nov-11 15:59N 38°30' W 008°50'0 0.0
2017-Nov-11 15:30N 38°30' W 008°50'0 0.0
2017-Nov-11 15:00N 38°30' W 008°50'0 0.0
2017-Nov-11 14:29N 38°30' W 008°50'0 0.0
2017-Nov-11 14:00N 38°30' W 008°50'0 0.0
2017-Nov-11 13:30N 38°30' W 008°50'0 0.0
2017-Nov-11 12:59N 38°30' W 008°50'0 0.0
2017-Nov-11 12:29N 38°30' W 008°50'0 0.0
2017-Nov-11 12:00N 38°30' W 008°50'0 0.0
2017-Nov-11 11:30N 38°30' W 008°50'0 0.0
2017-Nov-11 10:56N 38°30' W 008°50'0 0.0
2017-Nov-11 10:29N 38°30' W 008°50'0 0.0
2017-Nov-11 09:57N 38°30' W 008°50'0 0.0
2017-Nov-11 09:24N 38°30' W 008°50'0 0.0
2017-Nov-11 08:50N 38°30' W 008°50'0 0.0
2017-Nov-11 08:30N 38°30' W 008°50'1 1.6
2017-Nov-11 08:00N 38°30' W 008°51'2 3.2
2017-Nov-11 07:30N 38°31' W 008°53'0 0.6
2017-Nov-11 06:59N 38°31' W 008°53'2 3.1
2017-Nov-11 06:30N 38°30' W 008°55'0 0.4
2017-Nov-11 06:00N 38°30' W 008°55'2 3.3
2017-Nov-11 05:30N 38°31' W 008°53'2 3.9
2017-Nov-11 04:56N 38°30' W 008°50'0 0.0
2017-Nov-11 04:30N 38°30' W 008°50'0 0.0
2017-Nov-11 04:00N 38°30' W 008°50'0 0.0
2017-Nov-11 03:30N 38°30' W 008°50'0 0.0
2017-Nov-11 03:00N 38°30' W 008°50'0 0.0
2017-Nov-11 02:27N 38°30' W 008°50'0 0.0
2017-Nov-11 02:00N 38°30' W 008°50'0 0.0
2017-Nov-11 01:28N 38°30' W 008°50'0 0.0
2017-Nov-11 01:00N 38°30' W 008°50'0 0.0
2017-Nov-11 00:23N 38°30' W 008°50'0 0.0
2017-Nov-10 23:52N 38°30' W 008°50'0 0.0
2017-Nov-10 23:28N 38°30' W 008°50'0 0.0
2017-Nov-10 23:00N 38°30' W 008°50'0 0.0
2017-Nov-10 22:30N 38°30' W 008°50'0 0.0
2017-Nov-10 22:00N 38°30' W 008°50'0 0.0
2017-Nov-10 21:30N 38°30' W 008°50'0 0.0
2017-Nov-10 20:55N 38°30' W 008°50'0 0.0
2017-Nov-10 20:30N 38°30' W 008°50'0 0.0
2017-Nov-10 19:58N 38°30' W 008°50'0 0.0
2017-Nov-10 19:27N 38°30' W 008°50'0 0.0
2017-Nov-10 18:58N 38°30' W 008°50'0 0.0
2017-Nov-10 18:29N 38°30' W 008°50'0 0.0
2017-Nov-10 17:56N 38°30' W 008°50'0 0.0
2017-Nov-10 17:10N 38°30' W 008°50'0 0.0
2017-Nov-10 17:00N 38°30' W 008°50'0 0.0
2017-Nov-10 16:25N 38°30' W 008°50'0 0.0
2017-Nov-10 15:50N 38°30' W 008°50'0 0.0
2017-Nov-10 15:16N 38°30' W 008°50'0 0.0
2017-Nov-10 15:00N 38°30' W 008°50'0 0.0
2017-Nov-10 14:22N 38°30' W 008°50'0 0.0
2017-Nov-10 13:59N 38°30' W 008°50'0 0.0
2017-Nov-10 13:18N 38°30' W 008°50'0 0.0
2017-Nov-10 12:51N 38°30' W 008°50'0 0.0
2017-Nov-10 12:22N 38°30' W 008°50'0 0.0
2017-Nov-10 11:54N 38°30' W 008°50'0 0.0
2017-Nov-10 11:30N 38°30' W 008°50'0 0.0
2017-Nov-10 10:59N 38°30' W 008°50'0 0.0
2017-Nov-10 10:23N 38°30' W 008°50'0 0.0
2017-Nov-10 09:59N 38°30' W 008°50'0 0.0
2017-Nov-10 09:29N 38°30' W 008°50'0 0.0
2017-Nov-10 08:52N 38°30' W 008°50'0 0.0
2017-Nov-10 08:30N 38°30' W 008°50'0 0.6
2017-Nov-10 07:58N 38°30' W 008°51'1 2.9
2017-Nov-10 07:30N 38°31' W 008°52'2 3.5
2017-Nov-10 07:00N 38°31' W 008°54'0 0.2
2017-Nov-10 06:30N 38°31' W 008°55'3 5.4
2017-Nov-10 05:55N 38°30' W 008°51'0 0.8
2017-Nov-10 05:29N 38°30' W 008°50'0 0.0
2017-Nov-10 04:49N 38°30' W 008°50'0 0.0
2017-Nov-10 04:27N 38°30' W 008°50'0 0.0
2017-Nov-10 03:59N 38°30' W 008°50'0 0.0
2017-Nov-10 03:30N 38°30' W 008°50'0 0.0
2017-Nov-10 02:57N 38°30' W 008°50'0 0.0
2017-Nov-10 02:30N 38°30' W 008°50'0 0.0
2017-Nov-10 02:00N 38°30' W 008°50'0 0.0
2017-Nov-10 01:30N 38°30' W 008°50'0 0.0
2017-Nov-10 01:00N 38°30' W 008°50'2 4.1
2017-Nov-10 00:30N 38°31' W 008°52'0 0.6
2017-Nov-10 00:00N 38°31' W 008°53'2 4.0
2017-Nov-09 23:30N 38°30' W 008°51'0 0.5
2017-Nov-09 22:56N 38°30' W 008°50'0 0.0
2017-Nov-09 22:30N 38°30' W 008°50'0 0.0
2017-Nov-09 21:57N 38°30' W 008°50'0 0.0
2017-Nov-09 21:27N 38°30' W 008°50'0 0.0
2017-Nov-09 21:00N 38°30' W 008°50'0 0.0
2017-Nov-09 20:27N 38°30' W 008°50'2 3.4
2017-Nov-09 19:46N 38°31' W 008°53'0 1.1
2017-Nov-09 19:27N 38°31' W 008°53'1 3.1
2017-Nov-09 19:00N 38°30' W 008°55'3 1.4
2017-Nov-09 16:26N 38°30' W 008°50'0 0.1
2017-Nov-09 15:54N 38°30' W 008°50'0 0.0
2017-Nov-09 15:10N 38°30' W 008°50'0 0.0
2017-Nov-09 14:41N 38°30' W 008°50'0 0.0
2017-Nov-09 12:36N 38°30' W 008°50'0 0.0
2017-Nov-09 12:08N 38°30' W 008°50'0 0.0
2017-Nov-09 11:55N 38°30' W 008°50'0 0.0
2017-Nov-09 11:30N 38°30' W 008°50'0 0.0
2017-Nov-09 10:54N 38°30' W 008°50'0 0.0
2017-Nov-09 10:30N 38°30' W 008°50'0 0.0
2017-Nov-09 09:43N 38°30' W 008°50'0 0.0
2017-Nov-09 09:10N 38°30' W 008°50'0 0.0
2017-Nov-09 08:48N 38°30' W 008°50'0 0.0
2017-Nov-09 08:22N 38°30' W 008°50'0 0.0
2017-Nov-09 07:58N 38°30' W 008°50'0 0.0
2017-Nov-09 07:30N 38°30' W 008°50'0 0.0
2017-Nov-09 06:59N 38°30' W 008°50'0 0.0
2017-Nov-09 06:27N 38°30' W 008°50'0 0.0
2017-Nov-09 05:55N 38°30' W 008°50'0 0.0
2017-Nov-09 05:30N 38°30' W 008°50'0 0.0
2017-Nov-09 04:54N 38°30' W 008°50'0 0.0
2017-Nov-09 04:24N 38°30' W 008°50'0 0.0
2017-Nov-09 03:56N 38°30' W 008°50'0 0.0
2017-Nov-09 03:30N 38°30' W 008°50'0 0.0
2017-Nov-09 02:52N 38°30' W 008°50'0 0.0
2017-Nov-09 02:28N 38°30' W 008°50'0 0.0
2017-Nov-09 01:56N 38°30' W 008°50'0 0.0
2017-Nov-09 01:29N 38°30' W 008°50'2 2.4
2017-Nov-09 00:48N 38°31' W 008°52'0 0.3
2017-Nov-09 00:30N 38°31' W 008°52'2 2.2
2017-Nov-08 23:48N 38°30' W 008°50'0 0.0
2017-Nov-08 23:15N 38°30' W 008°50'0 0.0
2017-Nov-08 22:49N 38°30' W 008°50'0 0.0
2017-Nov-08 22:19N 38°30' W 008°50'0 0.0
2017-Nov-08 21:52N 38°30' W 008°50'0 0.0
2017-Nov-08 21:28N 38°30' W 008°50'0 0.0
2017-Nov-08 20:56N 38°30' W 008°50'0 0.0
2017-Nov-08 20:25N 38°30' W 008°50'0 0.0
2017-Nov-08 19:55N 38°30' W 008°50'0 0.0
2017-Nov-08 19:28N 38°30' W 008°50'0 0.0
2017-Nov-08 19:00N 38°30' W 008°50'0 0.0
2017-Nov-08 18:14N 38°30' W 008°50'0 0.0
2017-Nov-08 17:57N 38°30' W 008°50'0 0.0
2017-Nov-08 17:27N 38°30' W 008°50'2 2.8
2017-Nov-08 16:51N 38°31' W 008°52'0 0.6
2017-Nov-08 16:11N 38°31' W 008°53'2 5.4
2017-Nov-08 15:52N 38°30' W 008°55'1 2.3
2017-Nov-08 15:19N 38°31' W 008°53'2 6.8
2017-Nov-08 14:57N 38°30' W 008°50'0 0.1
2017-Nov-08 14:27N 38°30' W 008°50'0 0.0
2017-Nov-08 13:59N 38°30' W 008°50'0 0.0
2017-Nov-08 13:26N 38°30' W 008°50'0 0.0
2017-Nov-08 12:55N 38°30' W 008°50'0 0.0
2017-Nov-08 12:26N 38°30' W 008°50'3 1.6
2017-Nov-08 10:18N 38°30' W 008°55'3 8.7
2017-Nov-08 09:54N 38°30' W 008°50'0 0.0
2017-Nov-08 09:26N 38°30' W 008°50'0 0.0
2017-Nov-08 08:58N 38°30' W 008°50'1 1.3
2017-Nov-08 07:49N 38°31' W 008°52'2 2.3
2017-Nov-08 07:04N 38°31' W 008°54'1 9.7
2017-Nov-08 06:58N 38°31' W 008°53'2 4.8
2017-Nov-08 06:30N 38°30' W 008°50'0 0.0
2017-Nov-08 06:00N 38°30' W 008°50'0 0.0
2017-Nov-08 05:30N 38°30' W 008°50'0 0.0
2017-Nov-08 05:00N 38°30' W 008°50'  
Track history (hours):
 
Tides and Currents Weather Stations Pressure Air Temp Water Temp Dewpoint Dewpoint Depression Visibility Wind Speed Wind Dir Waves Ship Positions

Svitzer Lisboa

Last reported at 2017-Nov-18 04:30 UTC. Time now 2017-Nov-18 04:49 UTC.
Position N 38°30' W 008°50'.

Length 28 m; draft 4 m.

Type: Towing. MMSI: 263623000.

Date/timePositionNaut miles runAvg speedWind from/ knotsBaromVisibWave heightAir tempDewpointWater temp
2017-Nov-18 04:30N 38°30' W 008°50'0 0.0
2017-Nov-18 04:01N 38°30' W 008°50'0 0.0
2017-Nov-18 03:30N 38°30' W 008°50'0 0.0
2017-Nov-18 02:56N 38°30' W 008°50'0 0.0
2017-Nov-18 02:29N 38°30' W 008°50'0 0.0
2017-Nov-18 01:54N 38°30' W 008°50'0 0.0
2017-Nov-18 01:26N 38°30' W 008°50'0 0.0
2017-Nov-18 00:59N 38°30' W 008°50'0 0.0
2017-Nov-18 00:25N 38°30' W 008°50'0 0.0
2017-Nov-17 23:57N 38°30' W 008°50'0 0.0
2017-Nov-17 23:18N 38°30' W 008°50'0 0.0
2017-Nov-17 22:57N 38°30' W 008°50'0 0.0
2017-Nov-17 22:30N 38°30' W 008°50'0 0.0
2017-Nov-17 22:00N 38°30' W 008°50'0 0.0
2017-Nov-17 21:30N 38°30' W 008°50'0 0.0
2017-Nov-17 21:00N 38°30' W 008°50'0 0.0
2017-Nov-17 20:30N 38°30' W 008°50'0 0.0
2017-Nov-17 20:00N 38°30' W 008°50'0 0.0
2017-Nov-17 19:28N 38°30' W 008°50'0 0.0
2017-Nov-17 18:55N 38°30' W 008°50'0 0.0
2017-Nov-17 18:25N 38°30' W 008°50'0 1.1
2017-Nov-17 18:00N 38°30' W 008°51'1 2.0
2017-Nov-17 17:30N 38°31' W 008°52'1 2.3
2017-Nov-17 16:58N 38°30' W 008°50'0 0.5
2017-Nov-17 16:30N 38°30' W 008°50'0 0.0
2017-Nov-17 15:59N 38°30' W 008°50'0 0.0
2017-Nov-17 15:30N 38°30' W 008°50'0 0.0
2017-Nov-17 14:56N 38°30' W 008°50'0 0.0
2017-Nov-17 14:30N 38°30' W 008°50'0 0.0
2017-Nov-17 13:48N 38°30' W 008°50'0 0.0
2017-Nov-17 13:30N 38°30' W 008°50'0 0.0
2017-Nov-17 13:00N 38°30' W 008°50'0 0.0
2017-Nov-17 12:25N 38°30' W 008°50'0 0.0
2017-Nov-17 11:59N 38°30' W 008°50'0 0.0
2017-Nov-17 11:30N 38°30' W 008°50'0 0.0
2017-Nov-17 11:00N 38°30' W 008°50'0 0.0
2017-Nov-17 10:26N 38°30' W 008°50'0 0.0
2017-Nov-17 09:58N 38°30' W 008°50'0 0.0
2017-Nov-17 09:29N 38°30' W 008°50'0 0.0
2017-Nov-17 08:59N 38°30' W 008°50'0 0.0
2017-Nov-17 08:22N 38°30' W 008°50'0 0.0
2017-Nov-17 07:58N 38°30' W 008°50'0 0.0
2017-Nov-17 07:27N 38°30' W 008°50'0 0.0
2017-Nov-17 07:00N 38°30' W 008°50'0 0.0
2017-Nov-17 06:30N 38°30' W 008°50'0 0.0
2017-Nov-17 05:53N 38°30' W 008°50'0 0.0
2017-Nov-17 05:24N 38°30' W 008°50'0 0.0
2017-Nov-17 05:00N 38°30' W 008°50'0 0.0
2017-Nov-17 04:25N 38°30' W 008°50'0 0.0
2017-Nov-17 03:40N 38°30' W 008°50'0 0.0
2017-Nov-17 03:26N 38°30' W 008°50'0 0.0
2017-Nov-17 03:00N 38°30' W 008°50'0 0.0
2017-Nov-17 02:22N 38°30' W 008°50'0 0.0
2017-Nov-17 01:56N 38°30' W 008°50'0 0.0
2017-Nov-17 01:29N 38°30' W 008°50'0 0.0
2017-Nov-17 00:53N 38°30' W 008°50'0 0.0
2017-Nov-17 00:23N 38°30' W 008°50'0 0.0
2017-Nov-16 23:58N 38°30' W 008°50'0 0.0
2017-Nov-16 23:23N 38°30' W 008°50'0 0.0
2017-Nov-16 22:58N 38°30' W 008°50'0 0.0
2017-Nov-16 22:30N 38°30' W 008°50'0 0.0
2017-Nov-16 21:59N 38°30' W 008°50'0 0.0
2017-Nov-16 21:29N 38°30' W 008°50'0 0.0
2017-Nov-16 20:58N 38°30' W 008°50'0 0.0
2017-Nov-16 20:27N 38°30' W 008°50'0 0.0
2017-Nov-16 19:53N 38°30' W 008°50'0 0.0
2017-Nov-16 19:26N 38°30' W 008°50'0 0.0
2017-Nov-16 19:00N 38°30' W 008°50'0 0.0
2017-Nov-16 18:30N 38°30' W 008°50'0 0.0
2017-Nov-16 18:00N 38°30' W 008°50'0 0.0
2017-Nov-16 17:19N 38°30' W 008°50'0 0.0
2017-Nov-16 16:53N 38°30' W 008°50'0 0.0
2017-Nov-16 16:28N 38°30' W 008°50'1 2.8
2017-Nov-16 15:59N 38°30' W 008°52'0 0.5
2017-Nov-16 15:30N 38°31' W 008°52'2 4.0
2017-Nov-16 15:01N 38°31' W 008°54'3 5.4
2017-Nov-16 14:27N 38°30' W 008°51'1 1.1
2017-Nov-16 14:00N 38°30' W 008°50'0 0.0
2017-Nov-16 13:26N 38°30' W 008°50'0 0.0
2017-Nov-16 13:00N 38°30' W 008°50'0 0.0
2017-Nov-16 12:30N 38°30' W 008°50'0 0.0
2017-Nov-16 11:59N 38°30' W 008°50'0 0.0
2017-Nov-16 11:28N 38°30' W 008°50'0 0.0
2017-Nov-16 10:57N 38°30' W 008°50'0 0.0
2017-Nov-16 10:28N 38°30' W 008°50'0 0.0
2017-Nov-16 09:58N 38°30' W 008°50'0 0.0
2017-Nov-16 09:30N 38°30' W 008°50'0 0.0
2017-Nov-16 09:00N 38°30' W 008°50'0 0.0
2017-Nov-16 08:28N 38°30' W 008°50'0 0.0
2017-Nov-16 08:00N 38°30' W 008°50'0 0.0
2017-Nov-16 07:30N 38°30' W 008°50'0 0.0
2017-Nov-16 07:00N 38°30' W 008°50'0 0.0
2017-Nov-16 06:28N 38°30' W 008°50'0 0.0
2017-Nov-16 05:35N 38°30' W 008°50'0 0.0
2017-Nov-16 05:30N 38°30' W 008°50'0 0.0
2017-Nov-16 05:00N 38°30' W 008°50'0 0.0
2017-Nov-16 04:29N 38°30' W 008°50'0 0.0
2017-Nov-16 03:59N 38°30' W 008°50'0 0.0
2017-Nov-16 03:28N 38°30' W 008°50'0 0.0
2017-Nov-16 03:00N 38°30' W 008°50'0 0.0
2017-Nov-16 02:28N 38°30' W 008°50'0 0.0
2017-Nov-16 02:00N 38°30' W 008°50'0 0.0
2017-Nov-16 01:26N 38°30' W 008°50'0 0.0
2017-Nov-16 00:59N 38°30' W 008°50'0 0.0
2017-Nov-16 00:30N 38°30' W 008°50'0 0.0
2017-Nov-16 00:00N 38°30' W 008°50'0 0.0
2017-Nov-15 23:22N 38°30' W 008°50'0 0.0
2017-Nov-15 22:58N 38°30' W 008°50'0 0.0
2017-Nov-15 22:29N 38°30' W 008°50'0 0.0
2017-Nov-15 21:59N 38°30' W 008°50'0 0.0
2017-Nov-15 21:13N 38°30' W 008°50'0 0.0
2017-Nov-15 21:00N 38°30' W 008°50'0 0.0
2017-Nov-15 20:27N 38°30' W 008°50'0 0.0
2017-Nov-15 20:00N 38°30' W 008°50'0 0.0
2017-Nov-15 19:21N 38°30' W 008°50'0 0.0
2017-Nov-15 19:00N 38°30' W 008°50'0 0.0
2017-Nov-15 18:23N 38°30' W 008°50'0 0.0
2017-Nov-15 18:00N 38°30' W 008°50'0 0.0
2017-Nov-15 17:30N 38°30' W 008°50'0 0.0
2017-Nov-15 16:57N 38°30' W 008°50'0 0.0
2017-Nov-15 16:29N 38°30' W 008°50'0 0.0
2017-Nov-15 15:54N 38°30' W 008°50'0 0.0
2017-Nov-15 15:22N 38°30' W 008°50'0 0.0
2017-Nov-15 15:00N 38°30' W 008°50'0 0.0
2017-Nov-15 14:10N 38°30' W 008°50'0 0.0
2017-Nov-15 13:49N 38°30' W 008°50'0 0.0
2017-Nov-15 13:19N 38°30' W 008°50'0 0.0
2017-Nov-15 12:56N 38°30' W 008°50'0 0.0
2017-Nov-15 12:28N 38°30' W 008°50'0 0.0
2017-Nov-15 12:00N 38°30' W 008°50'0 0.0
2017-Nov-15 11:16N 38°30' W 008°50'0 0.0
2017-Nov-15 11:00N 38°30' W 008°50'0 0.0
2017-Nov-15 10:17N 38°30' W 008°50'0 0.0
2017-Nov-15 09:55N 38°30' W 008°50'0 0.0
2017-Nov-15 09:30N 38°30' W 008°50'0 0.0
2017-Nov-15 08:46N 38°30' W 008°50'0 0.0
2017-Nov-15 08:29N 38°30' W 008°50'0 0.0
2017-Nov-15 07:59N 38°30' W 008°50'0 0.0
2017-Nov-15 07:28N 38°30' W 008°50'0 0.0
2017-Nov-15 06:58N 38°30' W 008°50'0 0.0
2017-Nov-15 06:30N 38°30' W 008°50'0 0.0
2017-Nov-15 05:57N 38°30' W 008°50'0 0.0
2017-Nov-15 05:30N 38°30' W 008°50'0 0.0
2017-Nov-15 05:00N 38°30' W 008°50'0 0.0
2017-Nov-15 04:29N 38°30' W 008°50'0 0.0
2017-Nov-15 04:00N 38°30' W 008°50'0 0.0
2017-Nov-15 03:29N 38°30' W 008°50'0 0.0
2017-Nov-15 02:58N 38°30' W 008°50'0 0.0
2017-Nov-15 02:29N 38°30' W 008°50'0 0.0
2017-Nov-15 02:00N 38°30' W 008°50'0 0.0
2017-Nov-15 01:28N 38°30' W 008°50'0 0.0
2017-Nov-15 00:58N 38°30' W 008°50'0 0.0
2017-Nov-15 00:24N 38°30' W 008°50'0 0.0
2017-Nov-14 23:59N 38°30' W 008°50'0 0.0
2017-Nov-14 23:31N 38°30' W 008°50'0 0.0
2017-Nov-14 22:50N 38°30' W 008°50'0 0.0
2017-Nov-14 22:30N 38°30' W 008°50'0 0.0
2017-Nov-14 21:51N 38°30' W 008°50'0 0.0
2017-Nov-14 21:27N 38°30' W 008°50'0 0.0
2017-Nov-14 20:55N 38°30' W 008°50'0 0.0
2017-Nov-14 20:28N 38°30' W 008°50'0 0.0
2017-Nov-14 19:59N 38°30' W 008°50'0 0.0
2017-Nov-14 19:28N 38°30' W 008°50'2 3.9
2017-Nov-14 18:55N 38°31' W 008°53'1 2.1
2017-Nov-14 18:30N 38°31' W 008°54'0 0.8
2017-Nov-14 18:01N 38°31' W 008°53'2 4.3
2017-Nov-14 17:28N 38°30' W 008°51'0 0.2
2017-Nov-14 16:47N 38°30' W 008°50'0 0.3
2017-Nov-14 16:12N 38°30' W 008°50'0 0.0
2017-Nov-14 16:00N 38°30' W 008°50'0 0.0
2017-Nov-14 14:50N 38°30' W 008°50'0 0.0
2017-Nov-14 14:24N 38°30' W 008°50'0 0.0
2017-Nov-14 13:58N 38°30' W 008°50'0 0.0
2017-Nov-14 13:30N 38°30' W 008°50'0 0.0
2017-Nov-14 12:47N 38°30' W 008°50'0 0.0
2017-Nov-14 12:16N 38°30' W 008°50'0 0.0
2017-Nov-14 11:44N 38°30' W 008°50'0 0.0
2017-Nov-14 11:30N 38°30' W 008°50'0 0.0
2017-Nov-14 10:58N 38°30' W 008°50'0 0.0
2017-Nov-14 10:26N 38°30' W 008°50'0 0.0
2017-Nov-14 09:56N 38°30' W 008°50'0 0.0
2017-Nov-14 09:28N 38°30' W 008°50'0 0.0
2017-Nov-14 09:00N 38°30' W 008°50'0 0.0
2017-Nov-14 08:28N 38°30' W 008°50'0 0.0
2017-Nov-14 08:00N 38°30' W 008°50'0 0.0
2017-Nov-14 07:28N 38°30' W 008°50'2 3.2
2017-Nov-14 06:59N 38°31' W 008°52'0 0.8
2017-Nov-14 06:26N 38°31' W 008°52'2 3.5
2017-Nov-14 06:00N 38°30' W 008°54'1 1.6
2017-Nov-14 05:30N 38°31' W 008°54'3 5.1
2017-Nov-14 05:00N 38°30' W 008°51'0 0.4
2017-Nov-14 04:21N 38°30' W 008°50'0 0.0
2017-Nov-14 03:56N 38°30' W 008°50'0 0.0
2017-Nov-14 03:30N 38°30' W 008°50'0 0.0
2017-Nov-14 02:58N 38°30' W 008°50'0 0.0
2017-Nov-14 02:27N 38°30' W 008°50'0 0.0
2017-Nov-14 01:56N 38°30' W 008°50'0 0.0
2017-Nov-14 01:28N 38°30' W 008°50'0 0.0
2017-Nov-14 01:00N 38°30' W 008°50'0 0.0
2017-Nov-14 00:30N 38°30' W 008°50'0 0.0
2017-Nov-14 00:00N 38°30' W 008°50'0 0.0
2017-Nov-13 23:30N 38°30' W 008°50'0 0.0
2017-Nov-13 23:00N 38°30' W 008°50'0 0.0
2017-Nov-13 22:27N 38°30' W 008°50'0 0.0
2017-Nov-13 21:58N 38°30' W 008°50'0 0.0
2017-Nov-13 01:58N 38°30' W 008°50'0 0.0
2017-Nov-13 01:26N 38°30' W 008°50'0 0.0
2017-Nov-13 00:58N 38°30' W 008°50'0 0.0
2017-Nov-13 00:25N 38°30' W 008°50'0 0.0
2017-Nov-12 23:51N 38°30' W 008°50'0 0.0
2017-Nov-12 23:29N 38°30' W 008°50'0 0.0
2017-Nov-12 22:58N 38°30' W 008°50'0 0.0
2017-Nov-12 22:30N 38°30' W 008°50'0 0.0
2017-Nov-12 22:00N 38°30' W 008°50'0 0.0
2017-Nov-12 21:30N 38°30' W 008°50'0 0.0
2017-Nov-12 20:57N 38°30' W 008°50'0 0.0
2017-Nov-12 20:21N 38°30' W 008°50'0 0.0
2017-Nov-12 19:59N 38°30' W 008°50'0 0.0
2017-Nov-12 19:30N 38°30' W 008°50'0 0.0
2017-Nov-12 18:56N 38°30' W 008°50'0 0.0
2017-Nov-12 18:13N 38°30' W 008°50'0 0.0
2017-Nov-12 17:52N 38°30' W 008°50'0 0.0
2017-Nov-12 17:25N 38°30' W 008°50'0 0.0
2017-Nov-12 16:55N 38°30' W 008°50'0 0.0
2017-Nov-12 16:30N 38°30' W 008°50'0 0.0
2017-Nov-12 15:59N 38°30' W 008°50'0 0.0
2017-Nov-12 15:28N 38°30' W 008°50'0 0.0
2017-Nov-12 14:53N 38°30' W 008°50'0 0.0
2017-Nov-12 14:26N 38°30' W 008°50'0 0.0
2017-Nov-12 13:58N 38°30' W 008°50'0 0.0
2017-Nov-12 13:27N 38°30' W 008°50'2 3.7
2017-Nov-12 12:56N 38°31' W 008°52'0 0.8
2017-Nov-12 12:30N 38°31' W 008°52'2 2.8
2017-Nov-12 11:57N 38°30' W 008°50'0 0.0
2017-Nov-12 11:28N 38°30' W 008°50'0 0.0
2017-Nov-12 11:00N 38°30' W 008°50'0 0.0
2017-Nov-12 10:28N 38°30' W 008°50'0 0.0
2017-Nov-12 09:58N 38°30' W 008°50'0 0.0
2017-Nov-12 09:29N 38°30' W 008°50'0 0.0
2017-Nov-12 08:58N 38°30' W 008°50'0 0.0
2017-Nov-12 08:30N 38°30' W 008°50'0 0.0
2017-Nov-12 08:00N 38°30' W 008°50'0 0.0
2017-Nov-12 07:30N 38°30' W 008°50'0 0.0
2017-Nov-12 06:58N 38°30' W 008°50'0 0.0
2017-Nov-12 06:20N 38°30' W 008°50'0 0.0
2017-Nov-12 05:57N 38°30' W 008°50'0 0.0
2017-Nov-12 05:30N 38°30' W 008°50'0 0.0
2017-Nov-12 04:58N 38°30' W 008°50'0 0.0
2017-Nov-12 04:30N 38°30' W 008°50'0 0.0
2017-Nov-12 03:58N 38°30' W 008°50'0 0.0
2017-Nov-12 03:29N 38°30' W 008°50'0 0.0
2017-Nov-12 02:57N 38°30' W 008°50'0 0.0
2017-Nov-12 02:26N 38°30' W 008°50'0 0.0
2017-Nov-12 01:57N 38°30' W 008°50'0 0.0
2017-Nov-12 01:28N 38°30' W 008°50'0 0.0
2017-Nov-12 00:55N 38°30' W 008°50'0 0.0
2017-Nov-12 00:30N 38°30' W 008°50'0 0.0
2017-Nov-11 23:58N 38°30' W 008°50'0 0.0
2017-Nov-11 23:28N 38°30' W 008°50'0 0.0
2017-Nov-11 22:58N 38°30' W 008°50'0 0.0
2017-Nov-11 22:29N 38°30' W 008°50'0 0.0
2017-Nov-11 21:59N 38°30' W 008°50'0 0.0
2017-Nov-11 21:27N 38°30' W 008°50'0 0.0
2017-Nov-11 20:57N 38°30' W 008°50'0 0.0
2017-Nov-11 20:26N 38°30' W 008°50'0 0.0
2017-Nov-11 20:00N 38°30' W 008°50'0 0.0
2017-Nov-11 19:30N 38°30' W 008°50'0 0.0
2017-Nov-11 18:59N 38°30' W 008°50'0 0.0
2017-Nov-11 18:29N 38°30' W 008°50'0 0.0
2017-Nov-11 18:00N 38°30' W 008°50'0 0.0
2017-Nov-11 17:29N 38°30' W 008°50'0 0.0
2017-Nov-11 16:56N 38°30' W 008°50'0 0.0
2017-Nov-11 16:25N 38°30' W 008°50'0 0.0
2017-Nov-11 15:59N 38°30' W 008°50'0 0.0
2017-Nov-11 15:30N 38°30' W 008°50'0 0.0
2017-Nov-11 15:00N 38°30' W 008°50'0 0.0
2017-Nov-11 14:29N 38°30' W 008°50'0 0.0
2017-Nov-11 14:00N 38°30' W 008°50'0 0.0
2017-Nov-11 13:30N 38°30' W 008°50'0 0.0
2017-Nov-11 12:59N 38°30' W 008°50'0 0.0
2017-Nov-11 12:29N 38°30' W 008°50'0 0.0
2017-Nov-11 12:00N 38°30' W 008°50'0 0.0
2017-Nov-11 11:30N 38°30' W 008°50'0 0.0
2017-Nov-11 10:56N 38°30' W 008°50'0 0.0
2017-Nov-11 10:29N 38°30' W 008°50'0 0.0
2017-Nov-11 09:57N 38°30' W 008°50'0 0.0
2017-Nov-11 09:24N 38°30' W 008°50'0 0.0
2017-Nov-11 08:50N 38°30' W 008°50'0 0.0
2017-Nov-11 08:30N 38°30' W 008°50'1 1.6
2017-Nov-11 08:00N 38°30' W 008°51'2 3.2
2017-Nov-11 07:30N 38°31' W 008°53'0 0.6
2017-Nov-11 06:59N 38°31' W 008°53'2 3.1
2017-Nov-11 06:30N 38°30' W 008°55'0 0.4
2017-Nov-11 06:00N 38°30' W 008°55'2 3.3
2017-Nov-11 05:30N 38°31' W 008°53'2 3.9
2017-Nov-11 04:56N 38°30' W 008°50'0 0.0
2017-Nov-11 04:30N 38°30' W 008°50'0 0.0
2017-Nov-11 04:00N 38°30' W 008°50'0 0.0
2017-Nov-11 03:30N 38°30' W 008°50'0 0.0
2017-Nov-11 03:00N 38°30' W 008°50'0 0.0
2017-Nov-11 02:27N 38°30' W 008°50'0 0.0
2017-Nov-11 02:00N 38°30' W 008°50'0 0.0
2017-Nov-11 01:28N 38°30' W 008°50'0 0.0
2017-Nov-11 01:00N 38°30' W 008°50'0 0.0
2017-Nov-11 00:23N 38°30' W 008°50'0 0.0
2017-Nov-10 23:52N 38°30' W 008°50'0 0.0
2017-Nov-10 23:28N 38°30' W 008°50'0 0.0
2017-Nov-10 23:00N 38°30' W 008°50'0 0.0
2017-Nov-10 22:30N 38°30' W 008°50'0 0.0
2017-Nov-10 22:00N 38°30' W 008°50'0 0.0
2017-Nov-10 21:30N 38°30' W 008°50'0 0.0
2017-Nov-10 20:55N 38°30' W 008°50'0 0.0
2017-Nov-10 20:30N 38°30' W 008°50'0 0.0
2017-Nov-10 19:58N 38°30' W 008°50'0 0.0
2017-Nov-10 19:27N 38°30' W 008°50'0 0.0
2017-Nov-10 18:58N 38°30' W 008°50'0 0.0
2017-Nov-10 18:29N 38°30' W 008°50'0 0.0
2017-Nov-10 17:56N 38°30' W 008°50'0 0.0
2017-Nov-10 17:10N 38°30' W 008°50'0 0.0
2017-Nov-10 17:00N 38°30' W 008°50'0 0.0
2017-Nov-10 16:25N 38°30' W 008°50'0 0.0
2017-Nov-10 15:50N 38°30' W 008°50'0 0.0
2017-Nov-10 15:16N 38°30' W 008°50'0 0.0
2017-Nov-10 15:00N 38°30' W 008°50'0 0.0
2017-Nov-10 14:22N 38°30' W 008°50'0 0.0
2017-Nov-10 13:59N 38°30' W 008°50'0 0.0
2017-Nov-10 13:18N 38°30' W 008°50'0 0.0
2017-Nov-10 12:51N 38°30' W 008°50'0 0.0
2017-Nov-10 12:22N 38°30' W 008°50'0 0.0
2017-Nov-10 11:54N 38°30' W 008°50'0 0.0
2017-Nov-10 11:30N 38°30' W 008°50'0 0.0
2017-Nov-10 10:59N 38°30' W 008°50'0 0.0
2017-Nov-10 10:23N 38°30' W 008°50'0 0.0
2017-Nov-10 09:59N 38°30' W 008°50'0 0.0
2017-Nov-10 09:29N 38°30' W 008°50'0 0.0
2017-Nov-10 08:52N 38°30' W 008°50'0 0.0
2017-Nov-10 08:30N 38°30' W 008°50'0 0.6
2017-Nov-10 07:58N 38°30' W 008°51'1 2.9
2017-Nov-10 07:30N 38°31' W 008°52'2 3.5
2017-Nov-10 07:00N 38°31' W 008°54'0 0.2
2017-Nov-10 06:30N 38°31' W 008°55'3 5.4
2017-Nov-10 05:55N 38°30' W 008°51'0 0.8
2017-Nov-10 05:29N 38°30' W 008°50'0 0.0
2017-Nov-10 04:49N 38°30' W 008°50'0 0.0
2017-Nov-10 04:27N 38°30' W 008°50'0 0.0
2017-Nov-10 03:59N 38°30' W 008°50'0 0.0
2017-Nov-10 03:30N 38°30' W 008°50'0 0.0
2017-Nov-10 02:57N 38°30' W 008°50'0 0.0
2017-Nov-10 02:30N 38°30' W 008°50'0 0.0
2017-Nov-10 02:00N 38°30' W 008°50'0 0.0
2017-Nov-10 01:30N 38°30' W 008°50'0 0.0
2017-Nov-10 01:00N 38°30' W 008°50'2 4.1
2017-Nov-10 00:30N 38°31' W 008°52'0 0.6
2017-Nov-10 00:00N 38°31' W 008°53'2 4.0
2017-Nov-09 23:30N 38°30' W 008°51'0 0.5
2017-Nov-09 22:56N 38°30' W 008°50'0 0.0
2017-Nov-09 22:30N 38°30' W 008°50'0 0.0
2017-Nov-09 21:57N 38°30' W 008°50'0 0.0
2017-Nov-09 21:27N 38°30' W 008°50'0 0.0
2017-Nov-09 21:00N 38°30' W 008°50'0 0.0
2017-Nov-09 20:27N 38°30' W 008°50'2 3.4
2017-Nov-09 19:46N 38°31' W 008°53'0 1.1
2017-Nov-09 19:27N 38°31' W 008°53'1 3.1
2017-Nov-09 19:00N 38°30' W 008°55'3 1.4
2017-Nov-09 16:26N 38°30' W 008°50'0 0.1
2017-Nov-09 15:54N 38°30' W 008°50'0 0.0
2017-Nov-09 15:10N 38°30' W 008°50'0 0.0
2017-Nov-09 14:41N 38°30' W 008°50'0 0.0
2017-Nov-09 12:36N 38°30' W 008°50'0 0.0
2017-Nov-09 12:08N 38°30' W 008°50'0 0.0
2017-Nov-09 11:55N 38°30' W 008°50'0 0.0
2017-Nov-09 11:30N 38°30' W 008°50'0 0.0
2017-Nov-09 10:54N 38°30' W 008°50'0 0.0
2017-Nov-09 10:30N 38°30' W 008°50'0 0.0
2017-Nov-09 09:43N 38°30' W 008°50'0 0.0
2017-Nov-09 09:10N 38°30' W 008°50'0 0.0
2017-Nov-09 08:48N 38°30' W 008°50'0 0.0
2017-Nov-09 08:22N 38°30' W 008°50'0 0.0
2017-Nov-09 07:58N 38°30' W 008°50'0 0.0
2017-Nov-09 07:30N 38°30' W 008°50'0 0.0
2017-Nov-09 06:59N 38°30' W 008°50'0 0.0
2017-Nov-09 06:27N 38°30' W 008°50'0 0.0
2017-Nov-09 05:55N 38°30' W 008°50'0 0.0
2017-Nov-09 05:30N 38°30' W 008°50'0 0.0
2017-Nov-09 04:54N 38°30' W 008°50'0 0.0
2017-Nov-09 04:24N 38°30' W 008°50'0 0.0
2017-Nov-09 03:56N 38°30' W 008°50'0 0.0
2017-Nov-09 03:30N 38°30' W 008°50'0 0.0
2017-Nov-09 02:52N 38°30' W 008°50'0 0.0
2017-Nov-09 02:28N 38°30' W 008°50'0 0.0
2017-Nov-09 01:56N 38°30' W 008°50'0 0.0
2017-Nov-09 01:29N 38°30' W 008°50'2 2.4
2017-Nov-09 00:48N 38°31' W 008°52'0 0.3
2017-Nov-09 00:30N 38°31' W 008°52'2 2.2
2017-Nov-08 23:48N 38°30' W 008°50'0 0.0
2017-Nov-08 23:15N 38°30' W 008°50'0 0.0
2017-Nov-08 22:49N 38°30' W 008°50'0 0.0
2017-Nov-08 22:19N 38°30' W 008°50'0 0.0
2017-Nov-08 21:52N 38°30' W 008°50'0 0.0
2017-Nov-08 21:28N 38°30' W 008°50'0 0.0
2017-Nov-08 20:56N 38°30' W 008°50'0 0.0
2017-Nov-08 20:25N 38°30' W 008°50'0 0.0
2017-Nov-08 19:55N 38°30' W 008°50'0 0.0
2017-Nov-08 19:28N 38°30' W 008°50'0 0.0
2017-Nov-08 19:00N 38°30' W 008°50'0 0.0
2017-Nov-08 18:14N 38°30' W 008°50'0 0.0
2017-Nov-08 17:57N 38°30' W 008°50'0 0.0
2017-Nov-08 17:27N 38°30' W 008°50'2 2.8
2017-Nov-08 16:51N 38°31' W 008°52'0 0.6
2017-Nov-08 16:11N 38°31' W 008°53'2 5.4
2017-Nov-08 15:52N 38°30' W 008°55'1 2.3
2017-Nov-08 15:19N 38°31' W 008°53'2 6.8
2017-Nov-08 14:57N 38°30' W 008°50'0 0.1
2017-Nov-08 14:27N 38°30' W 008°50'0 0.0
2017-Nov-08 13:59N 38°30' W 008°50'0 0.0
2017-Nov-08 13:26N 38°30' W 008°50'0 0.0
2017-Nov-08 12:55N 38°30' W 008°50'0 0.0
2017-Nov-08 12:26N 38°30' W 008°50'3 1.6
2017-Nov-08 10:18N 38°30' W 008°55'3 8.7
2017-Nov-08 09:54N 38°30' W 008°50'0 0.0
2017-Nov-08 09:26N 38°30' W 008°50'0 0.0
2017-Nov-08 08:58N 38°30' W 008°50'1 1.3
2017-Nov-08 07:49N 38°31' W 008°52'2 2.3
2017-Nov-08 07:04N 38°31' W 008°54'1 9.7
2017-Nov-08 06:58N 38°31' W 008°53'2 4.8
2017-Nov-08 06:30N 38°30' W 008°50'0 0.0
2017-Nov-08 06:00N 38°30' W 008°50'0 0.0
2017-Nov-08 05:30N 38°30' W 008°50'0 0.0
2017-Nov-08 05:00N 38°30' W 008°50'  

Dump ship's entire track history